Sacramento, California
Traffic Map
Current Weather Conditions
Sacramento, California
Clear
Clear
19°
Feels Like: 19°
Wind Chill: 19° Ceiling: Unl
Heat Index: 19° Visibility: 10mi
Dew Point: 14° Wind: 5mph
Humidity: 73% Direction: 320° (NW)
Pressure: 30.05in Gusts: 0mph
Raw Report DataKSAC 241953Z 32004KT 10SM CLR 19/14 A3005 RMK AO2 SLP177 T01940144 $
Traffic Incident Summary
Active as of:
Severity:
Category:
InformationThere was an issue retrieving the traffic information for this location. Please try a different location or try again shortly.
Advertisements